Time;durP1;ratioP1;P1;durP2;ratioP2;P2;SDS_P1;SDS_P2;PMS_P1;PMS_P2;Temp;Humidity;BMP_temperature;BMP_pressure;BME280_temperature;BME280_humidity;BME280_pressure;Samples;Min_cycle;Max_cycle;Signal;HPM_P1;HPM_P2
2023/08/29 00:02:04;;;;;;;3.53;3.08;;;;;;;;;;5036594;28;20196;-63
2023/08/29 00:04:31;;;;;;;3.25;3.05;;;;;;;;;;5029164;28;20283;-64
2023/08/29 00:06:57;;;;;;;3.30;2.97;;;;;;;;;;5029204;28;20709;-65
2023/08/29 00:09:24;;;;;;;5.15;3.55;;;;;;;;;;5028903;28;20594;-65
2023/08/29 00:11:51;;;;;;;5.68;3.28;;;;;;;;;;5029877;28;20650;-66
2023/08/29 00:14:18;;;;;;;4.28;3.00;;;;;;;;;;5028066;28;20269;-65
2023/08/29 00:16:44;;;;;;;2.80;2.60;;;;;;;;;;5028858;28;20265;-66
2023/08/29 00:19:11;;;;;;;3.15;2.60;;;;;;;;;;5038097;28;20774;-66
2023/08/29 00:21:38;;;;;;;4.88;3.75;;;;;;;;;;5029287;28;20640;-66
2023/08/29 00:24:04;;;;;;;6.35;4.00;;;;;;;;;;5029090;28;20203;-66
2023/08/29 00:26:31;;;;;;;7.25;3.40;;;;;;;;;;5027680;28;20228;-66
2023/08/29 00:28:59;;;;;;;2.85;2.65;;;;;;;;;;5028835;28;20822;-64
2023/08/29 00:31:25;;;;;;;4.05;3.40;;;;;;;;;;5026407;28;20678;-64
2023/08/29 00:33:54;;;;;;;4.53;4.18;;;;;;;;;;5029346;28;20297;-64
2023/08/29 00:36:21;;;;;;;3.75;3.45;;;;;;;;;;5028818;28;20207;-64
2023/08/29 00:38:47;;;;;;;4.78;4.35;;;;;;;;;;5030068;28;20208;-64
2023/08/29 00:41:13;;;;;;;7.10;3.30;;;;;;;;;;5030074;28;20223;-65
2023/08/29 00:43:40;;;;;;;3.83;3.42;;;;;;;;;;5029443;28;20200;-64
2023/08/29 00:46:08;;;;;;;3.95;3.28;;;;;;;;;;5030385;28;20199;-64
2023/08/29 00:48:34;;;;;;;5.88;3.45;;;;;;;;;;5029717;28;20263;-64
2023/08/29 00:51:01;;;;;;;3.38;3.00;;;;;;;;;;5029916;28;20705;-64
2023/08/29 00:53:27;;;;;;;6.30;3.50;;;;;;;;;;5030881;28;20289;-66
2023/08/29 00:55:55;;;;;;;3.50;3.20;;;;;;;;;;5029910;28;20195;-63
2023/08/29 00:58:21;;;;;;;5.43;3.38;;;;;;;;;;5029620;28;20215;-64
2023/08/29 01:00:49;;;;;;;3.88;3.47;;;;;;;;;;5030070;28;20254;-64
2023/08/29 01:03:17;;;;;;;4.32;3.47;;;;;;;;;;5030128;28;20277;-64
2023/08/29 01:05:43;;;;;;;3.78;3.20;;;;;;;;;;5029615;28;20563;-66
2023/08/29 01:08:09;;;;;;;5.82;3.35;;;;;;;;;;5028712;28;20628;-64
2023/08/29 01:10:42;;;;;;;3.70;3.47;;;;;;;;;;5029951;28;20235;-65
2023/08/29 01:13:12;;;;;;;4.78;3.20;;;;;;;;;;5029307;28;20250;-65
2023/08/29 01:15:40;;;;;;;3.42;3.13;;;;;;;;;;5029942;28;20283;-65
2023/08/29 01:18:06;;;;;;;4.15;3.40;;;;;;;;;;5030082;28;20235;-64
2023/08/29 01:20:36;;;;;;;3.92;3.65;;;;;;;;;;5028593;28;20266;-64
2023/08/29 01:23:08;;;;;;;4.00;3.50;;;;;;;;;;5029919;28;20234;-64
2023/08/29 01:25:38;;;;;;;3.38;3.03;;;;;;;;;;5029772;28;20286;-64
2023/08/29 01:28:07;;;;;;;3.42;3.13;;;;;;;;;;5029949;28;20199;-64
2023/08/29 01:30:35;;;;;;;3.53;3.22;;;;;;;;;;5029794;28;21346;-65
2023/08/29 01:33:01;;;;;;;3.28;2.92;;;;;;;;;;5029742;28;20212;-64
2023/08/29 01:35:28;;;;;;;3.58;3.28;;;;;;;;;;5028999;28;20239;-64
2023/08/29 01:37:54;;;;;;;3.53;3.33;;;;;;;;;;5029364;28;20689;-64
2023/08/29 01:40:21;;;;;;;3.42;3.17;;;;;;;;;;5028929;28;20623;-64
2023/08/29 01:42:47;;;;;;;3.28;2.88;;;;;;;;;;5029699;28;20226;-65
2023/08/29 01:45:15;;;;;;;3.83;3.45;;;;;;;;;;5029313;28;20203;-64
2023/08/29 01:47:42;;;;;;;3.70;3.40;;;;;;;;;;5029629;28;20239;-65
2023/08/29 01:50:10;;;;;;;3.10;2.90;;;;;;;;;;5029229;28;20670;-65
2023/08/29 01:52:36;;;;;;;3.88;3.35;;;;;;;;;;5029288;28;20281;-65
2023/08/29 01:55:03;;;;;;;3.97;3.50;;;;;;;;;;5029079;28;20224;-65
2023/08/29 01:57:31;;;;;;;4.43;3.42;;;;;;;;;;5029615;28;20219;-65
2023/08/29 01:59:58;;;;;;;3.75;3.08;;;;;;;;;;5029410;28;20279;-65
2023/08/29 02:02:26;;;;;;;4.53;4.22;;;;;;;;;;5029229;28;20240;-65
2023/08/29 02:04:52;;;;;;;5.00;3.60;;;;;;;;;;5029000;28;20231;-65
2023/08/29 02:07:19;;;;;;;5.13;3.53;;;;;;;;;;5029470;28;20239;-64
2023/08/29 02:09:45;;;;;;;4.32;3.60;;;;;;;;;;5029250;28;20608;-65
2023/08/29 02:12:11;;;;;;;8.45;3.83;;;;;;;;;;5029222;28;20568;-65
2023/08/29 02:14:38;;;;;;;10.50;3.90;;;;;;;;;;5028326;28;20235;-65
2023/08/29 02:17:05;;;;;;;5.05;4.05;;;;;;;;;;5029472;28;20261;-65
2023/08/29 02:19:32;;;;;;;4.95;4.05;;;;;;;;;;5030936;28;20281;-65
2023/08/29 02:21:59;;;;;;;4.20;3.33;;;;;;;;;;5033133;28;20231;-65
2023/08/29 02:24:26;;;;;;;6.82;4.22;;;;;;;;;;5031965;28;20249;-65
2023/08/29 02:26:52;;;;;;;6.15;3.40;;;;;;;;;;5032942;28;20286;-65
2023/08/29 02:29:19;;;;;;;3.55;3.25;;;;;;;;;;5032132;28;20199;-65
2023/08/29 02:31:45;;;;;;;4.65;3.38;;;;;;;;;;5032775;28;20255;-65
2023/08/29 02:34:12;;;;;;;6.68;3.50;;;;;;;;;;5032328;28;20675;-65
2023/08/29 02:36:40;;;;;;;3.22;2.92;;;;;;;;;;5032793;28;20212;-65
2023/08/29 02:39:07;;;;;;;6.88;3.88;;;;;;;;;;5031566;28;20199;-65
2023/08/29 02:41:33;;;;;;;8.13;3.42;;;;;;;;;;5032553;28;20200;-65
2023/08/29 02:44:00;;;;;;;3.53;3.30;;;;;;;;;;5031887;28;20277;-65
2023/08/29 02:46:26;;;;;;;3.80;3.50;;;;;;;;;;5032797;28;20211;-65
2023/08/29 02:48:53;;;;;;;3.25;2.95;;;;;;;;;;5031770;28;20232;-65
2023/08/29 02:51:19;;;;;;;5.25;3.20;;;;;;;;;;5032508;28;20316;-65
2023/08/29 02:53:47;;;;;;;7.50;3.75;;;;;;;;;;5032412;28;20278;-65
2023/08/29 02:56:14;;;;;;;3.97;3.63;;;;;;;;;;5031892;28;20203;-65
2023/08/29 02:58:41;;;;;;;5.40;3.90;;;;;;;;;;5024349;28;20720;-65
2023/08/29 03:01:11;;;;;;;6.00;3.55;;;;;;;;;;5032416;28;20286;-64
2023/08/29 03:03:37;;;;;;;5.25;3.50;;;;;;;;;;5032582;28;20685;-65
2023/08/29 03:06:04;;;;;;;5.90;4.00;;;;;;;;;;5032931;28;20250;-65
2023/08/29 03:08:31;;;;;;;3.78;3.42;;;;;;;;;;5032753;28;21158;-65
2023/08/29 03:11:03;;;;;;;6.05;3.88;;;;;;;;;;5028287;28;20227;-65
2023/08/29 03:13:30;;;;;;;5.85;3.05;;;;;;;;;;5032046;28;20765;-65
2023/08/29 03:15:57;;;;;;;4.45;4.05;;;;;;;;;;5030196;28;20221;-65
2023/08/29 03:18:24;;;;;;;3.40;3.15;;;;;;;;;;5032319;28;20211;-65
2023/08/29 03:20:51;;;;;;;6.22;3.67;;;;;;;;;;5030603;28;20249;-65
2023/08/29 03:23:17;;;;;;;7.53;3.97;;;;;;;;;;5032129;28;20195;-65
2023/08/29 03:25:44;;;;;;;4.07;3.67;;;;;;;;;;5031590;28;20203;-65
2023/08/29 03:28:12;;;;;;;4.50;3.53;;;;;;;;;;5031934;28;20199;-65
2023/08/29 03:30:38;;;;;;;6.32;3.65;;;;;;;;;;5029763;28;20219;-65
2023/08/29 03:33:05;;;;;;;3.97;3.47;;;;;;;;;;5031617;28;20253;-65
2023/08/29 03:35:31;;;;;;;10.88;4.18;;;;;;;;;;5028468;28;20764;-64
2023/08/29 03:37:57;;;;;;;4.18;3.90;;;;;;;;;;5031784;28;20208;-64
2023/08/29 03:40:24;;;;;;;3.88;3.58;;;;;;;;;;5031260;28;20258;-65
2023/08/29 03:42:50;;;;;;;4.22;3.85;;;;;;;;;;5031408;28;20226;-65
2023/08/29 03:45:19;;;;;;;4.90;3.38;;;;;;;;;;5031484;28;20490;-65
2023/08/29 03:47:45;;;;;;;6.22;4.28;;;;;;;;;;5031523;28;20314;-65
2023/08/29 03:50:12;;;;;;;4.50;3.70;;;;;;;;;;5030838;28;20231;-65
2023/08/29 03:52:38;;;;;;;7.25;4.32;;;;;;;;;;5031291;28;20297;-65
2023/08/29 03:55:05;;;;;;;4.50;3.58;;;;;;;;;;5030872;28;20231;-65
2023/08/29 03:57:31;;;;;;;4.90;4.22;;;;;;;;;;5030831;28;20282;-65
2023/08/29 03:59:58;;;;;;;5.50;3.60;;;;;;;;;;5030837;28;20632;-65
2023/08/29 04:02:26;;;;;;;6.97;3.60;;;;;;;;;;5030657;28;20249;-65
2023/08/29 04:04:53;;;;;;;3.78;3.58;;;;;;;;;;5030627;28;20345;-64
2023/08/29 04:07:20;;;;;;;7.63;3.95;;;;;;;;;;5031203;28;20203;-65
2023/08/29 04:09:46;;;;;;;4.13;3.75;;;;;;;;;;5030801;28;20203;-64
2023/08/29 04:12:13;;;;;;;4.45;3.75;;;;;;;;;;5030692;28;20251;-66
2023/08/29 04:14:39;;;;;;;4.43;3.80;;;;;;;;;;5030072;28;20208;-65
2023/08/29 04:17:05;;;;;;;6.80;3.78;;;;;;;;;;5031137;28;20231;-64
2023/08/29 04:19:33;;;;;;;6.85;4.15;;;;;;;;;;5030485;28;20238;-64
2023/08/29 04:22:00;;;;;;;4.82;4.05;;;;;;;;;;5030663;28;20674;-65
2023/08/29 04:24:28;;;;;;;4.80;3.72;;;;;;;;;;5030451;28;20228;-64
2023/08/29 04:26:54;;;;;;;7.57;4.40;;;;;;;;;;5030416;28;20208;-64
2023/08/29 04:29:21;;;;;;;6.40;3.67;;;;;;;;;;5030065;28;20215;-64
2023/08/29 04:31:47;;;;;;;7.05;4.03;;;;;;;;;;5030649;28;20251;-64
2023/08/29 04:34:14;;;;;;;4.75;3.70;;;;;;;;;;5030414;28;20199;-64
2023/08/29 04:36:42;;;;;;;4.32;3.72;;;;;;;;;;5030943;28;20702;-65
2023/08/29 04:39:09;;;;;;;4.63;4.22;;;;;;;;;;5030270;28;20696;-63
2023/08/29 04:41:35;;;;;;;4.28;3.88;;;;;;;;;;5029804;28;20573;-64
2023/08/29 04:44:02;;;;;;;4.55;3.92;;;;;;;;;;5029458;28;20203;-64
2023/08/29 04:46:28;;;;;;;3.97;3.67;;;;;;;;;;5030551;28;20629;-64
2023/08/29 04:48:55;;;;;;;4.50;4.20;;;;;;;;;;5029850;28;20689;-64
2023/08/29 04:51:22;;;;;;;7.22;5.05;;;;;;;;;;5030160;28;20219;-63
2023/08/29 04:53:50;;;;;;;4.72;4.32;;;;;;;;;;5030081;28;20226;-66
2023/08/29 04:56:17;;;;;;;7.30;4.70;;;;;;;;;;5029595;28;20215;-64
2023/08/29 04:58:43;;;;;;;8.70;3.70;;;;;;;;;;5029797;28;20633;-64
2023/08/29 05:01:10;;;;;;;6.80;3.78;;;;;;;;;;5029825;28;20286;-64
2023/08/29 05:03:36;;;;;;;5.32;4.28;;;;;;;;;;5029897;28;20207;-64
2023/08/29 05:06:03;;;;;;;4.10;3.80;;;;;;;;;;5030155;28;20760;-64
2023/08/29 05:08:34;;;;;;;6.78;4.13;;;;;;;;;;5027242;28;20363;-63
2023/08/29 05:11:02;;;;;;;6.43;4.32;;;;;;;;;;5029692;28;20290;-64
2023/08/29 05:13:28;;;;;;;5.50;4.82;;;;;;;;;;5029896;28;20204;-64
2023/08/29 05:15:55;;;;;;;8.85;4.18;;;;;;;;;;5029383;28;20207;-64
2023/08/29 05:18:21;;;;;;;5.93;3.67;;;;;;;;;;5030375;28;20297;-64
2023/08/29 05:20:48;;;;;;;4.20;3.53;;;;;;;;;;5030046;28;20305;-64
2023/08/29 05:23:14;;;;;;;5.40;3.78;;;;;;;;;;5029849;28;20202;-64
2023/08/29 05:25:41;;;;;;;7.68;3.67;;;;;;;;;;5029858;28;20265;-64
2023/08/29 05:28:08;;;;;;;6.85;3.90;;;;;;;;;;5029653;28;20642;-64
2023/08/29 05:30:35;;;;;;;7.40;3.80;;;;;;;;;;5030136;28;20209;-64
2023/08/29 05:33:02;;;;;;;7.88;3.70;;;;;;;;;;5029451;28;20682;-64
2023/08/29 05:35:29;;;;;;;6.53;3.72;;;;;;;;;;5029847;28;20269;-64
2023/08/29 05:37:55;;;;;;;5.30;4.80;;;;;;;;;;5029061;28;20211;-65
2023/08/29 05:40:21;;;;;;;4.85;4.32;;;;;;;;;;5027830;28;20203;-65
2023/08/29 05:42:48;;;;;;;4.90;3.95;;;;;;;;;;5029796;28;20693;-64
2023/08/29 05:45:16;;;;;;;5.72;3.80;;;;;;;;;;5029024;28;20207;-64
2023/08/29 05:47:43;;;;;;;4.65;4.32;;;;;;;;;;5029367;28;20232;-64
2023/08/29 05:50:09;;;;;;;3.90;3.65;;;;;;;;;;5029524;28;20272;-64
2023/08/29 05:52:36;;;;;;;5.53;4.13;;;;;;;;;;5029834;28;20314;-64
2023/08/29 05:55:02;;;;;;;5.95;4.28;;;;;;;;;;5032550;28;20282;-64
2023/08/29 05:57:29;;;;;;;5.00;4.32;;;;;;;;;;5033726;28;20199;-64
2023/08/29 05:59:56;;;;;;;10.02;3.88;;;;;;;;;;5033094;28;20699;-64
2023/08/29 06:02:24;;;;;;;6.75;4.18;;;;;;;;;;5032238;28;20203;-64
2023/08/29 06:04:50;;;;;;;6.07;4.30;;;;;;;;;;5033350;28;20204;-64
2023/08/29 06:07:16;;;;;;;3.80;3.60;;;;;;;;;;5033002;28;20648;-64
2023/08/29 06:09:43;;;;;;;3.80;3.47;;;;;;;;;;5032619;28;20199;-65
2023/08/29 06:12:10;;;;;;;4.43;3.80;;;;;;;;;;5033146;28;20223;-65
2023/08/29 06:14:36;;;;;;;6.53;3.83;;;;;;;;;;5032697;28;20199;-65
2023/08/29 06:17:03;;;;;;;8.52;4.18;;;;;;;;;;5033621;28;20227;-59
2023/08/29 06:19:31;;;;;;;9.10;3.65;;;;;;;;;;5032299;28;20200;-59
2023/08/29 06:21:57;;;;;;;5.18;4.05;;;;;;;;;;5033344;28;20204;-59
2023/08/29 06:24:23;;;;;;;17.42;4.60;;;;;;;;;;5031569;28;20203;-59
2023/08/29 06:26:50;;;;;;;9.27;5.28;;;;;;;;;;5031373;28;20262;-60
2023/08/29 06:29:16;;;;;;;18.27;6.55;;;;;;;;;;5031115;28;20292;-59
2023/08/29 06:31:43;;;;;;;18.73;10.50;;;;;;;;;;5031100;28;20223;-60
2023/08/29 06:34:10;;;;;;;15.43;10.55;;;;;;;;;;5030546;28;20200;-58
2023/08/29 06:36:38;;;;;;;20.00;10.80;;;;;;;;;;5030000;28;20212;-60
2023/08/29 06:39:05;;;;;;;15.18;9.18;;;;;;;;;;5026333;28;20230;-59
2023/08/29 06:41:31;;;;;;;17.73;9.05;;;;;;;;;;5031874;28;20219;-60
2023/08/29 06:43:58;;;;;;;12.85;7.20;;;;;;;;;;5032674;28;20258;-60
2023/08/29 06:46:24;;;;;;;8.75;5.93;;;;;;;;;;5033082;28;20215;-60
2023/08/29 06:48:51;;;;;;;11.80;5.63;;;;;;;;;;5032180;28;20227;-59
2023/08/29 06:51:17;;;;;;;10.88;4.00;;;;;;;;;;5032798;28;20203;-59
2023/08/29 06:53:45;;;;;;;12.30;4.78;;;;;;;;;;5032646;28;20227;-60
2023/08/29 06:56:11;;;;;;;17.08;6.95;;;;;;;;;;5032710;28;20681;-59
2023/08/29 06:58:38;;;;;;;9.32;5.85;;;;;;;;;;5034424;28;20234;-59
2023/08/29 07:01:04;;;;;;;16.52;6.75;;;;;;;;;;5038502;28;20286;-59
2023/08/29 07:03:31;;;;;;;6.50;5.65;;;;;;;;;;5031847;28;20196;-58
2023/08/29 07:05:57;;;;;;;7.60;5.32;;;;;;;;;;5030966;28;20203;-57
2023/08/29 07:08:24;;;;;;;7.28;5.20;;;;;;;;;;5032083;28;20200;-58
2023/08/29 07:10:52;;;;;;;5.70;4.43;;;;;;;;;;5032000;28;20291;-57
2023/08/29 07:13:18;;;;;;;9.00;5.03;;;;;;;;;;5032180;28;20247;-58
2023/08/29 07:15:45;;;;;;;9.95;4.50;;;;;;;;;;5032013;28;20258;-59
2023/08/29 07:18:13;;;;;;;4.38;4.03;;;;;;;;;;5032351;28;20203;-60
2023/08/29 07:20:39;;;;;;;5.93;4.25;;;;;;;;;;5031825;28;20199;-59
2023/08/29 07:23:06;;;;;;;4.85;4.50;;;;;;;;;;5032984;28;20282;-59
2023/08/29 07:25:39;;;;;;;7.88;4.13;;;;;;;;;;5031303;28;20642;-58
2023/08/29 07:28:08;;;;;;;10.27;4.80;;;;;;;;;;5021569;28;20215;-58
2023/08/29 07:30:35;;;;;;;6.07;4.80;;;;;;;;;;5030929;28;20291;-59
2023/08/29 07:33:01;;;;;;;9.50;5.05;;;;;;;;;;5031340;28;20231;-58
2023/08/29 07:35:28;;;;;;;5.55;4.18;;;;;;;;;;5031096;28;20424;-58
2023/08/29 07:37:55;;;;;;;5.13;4.70;;;;;;;;;;5031599;28;20273;-59
2023/08/29 07:40:21;;;;;;;9.75;4.90;;;;;;;;;;5031021;28;20211;-58
2023/08/29 07:42:48;;;;;;;9.07;4.30;;;;;;;;;;5031267;28;20203;-58
2023/08/29 07:45:16;;;;;;;4.38;4.07;;;;;;;;;;5031232;28;20212;-59
2023/08/29 07:47:42;;;;;;;5.20;4.50;;;;;;;;;;5031275;28;20232;-58
2023/08/29 07:50:09;;;;;;;4.47;4.07;;;;;;;;;;5031341;28;20208;-59
2023/08/29 07:52:35;;;;;;;7.53;4.95;;;;;;;;;;5031356;28;20282;-59
2023/08/29 07:55:02;;;;;;;5.28;4.72;;;;;;;;;;5030700;28;20215;-59
2023/08/29 07:57:28;;;;;;;5.18;4.60;;;;;;;;;;5031080;28;20266;-59
2023/08/29 07:59:54;;;;;;;10.02;4.45;;;;;;;;;;5030843;28;20196;-58
2023/08/29 08:02:22;;;;;;;7.82;4.20;;;;;;;;;;5031401;28;20200;-58
2023/08/29 08:04:49;;;;;;;4.97;4.32;;;;;;;;;;5030695;28;20269;-58
2023/08/29 08:07:15;;;;;;;5.38;4.82;;;;;;;;;;5031325;28;20265;-58
2023/08/29 08:09:43;;;;;;;4.90;4.50;;;;;;;44.47;nan;94257.47;5030800;28;20223;-59
2023/08/29 08:12:09;;;;;;;4.95;4.57;;;;;;;;;;5031042;28;20247;-57
2023/08/29 08:14:36;;;;;;;6.05;4.68;;;;;;;;;;5030382;28;20211;-58
2023/08/29 08:17:02;;;;;;;4.93;4.60;;;;;;;;;;5030738;28;20270;-57
2023/08/29 08:19:30;;;;;;;7.78;4.47;;;;;;;;;;5030310;28;20203;-58
2023/08/29 08:21:57;;;;;;;5.95;4.32;;;;;;;;;;5030844;28;20207;-58
2023/08/29 08:24:23;;;;;;;5.18;4.68;;;;;;;;;;5030388;28;20211;-57
2023/08/29 08:26:49;;;;;;;8.88;5.25;;;;;;;;;;5030986;28;20199;-57
2023/08/29 08:29:16;;;;;;;8.50;5.28;;;;;;;;;;5030009;28;20200;-58
2023/08/29 08:31:42;;;;;;;8.00;4.50;;;;;;;;;;5031052;28;20212;-58
2023/08/29 08:34:10;;;;;;;5.00;4.55;;;;;;;;;;5029378;28;20227;-57
2023/08/29 08:36:38;;;;;;;11.60;4.97;;;;;;;;;;5030774;28;20273;-58
2023/08/29 08:39:04;;;;;;;5.53;4.32;;;;;;;;;;5029545;28;20242;-59
2023/08/29 08:41:32;;;;;;;5.70;4.97;;;;;;;;;;5030710;28;20303;-58
2023/08/29 08:44:03;;;;;;;7.03;5.03;;;;;;;;;;5030019;28;20261;-58
2023/08/29 08:46:29;;;;;;;4.88;4.57;;;;;;;;;;5030395;28;20204;-59
2023/08/29 08:48:56;;;;;;;5.03;4.53;;;;;;;;;;5029669;28;20232;-58
2023/08/29 08:51:24;;;;;;;9.30;4.53;;;;;;;;;;5030169;28;20206;-58
2023/08/29 08:53:53;;;;;;;4.47;4.20;;;;;;;;;;5029555;28;20231;-59
2023/08/29 08:56:20;;;;;;;10.50;4.65;;;;;;;;;;5029824;28;20199;-58
2023/08/29 08:58:47;;;;;;;5.32;4.95;;;;;;;;;;5030228;28;20215;-57
2023/08/29 09:01:13;;;;;;;4.25;3.97;;;;;;;;;;5029847;28;20241;-59
2023/08/29 09:03:40;;;;;;;7.68;5.65;;;;;;;;;;5029833;28;20203;-58
2023/08/29 09:06:07;;;;;;;4.65;4.32;;;;;;;;;;5029678;28;20685;-58
2023/08/29 09:08:34;;;;;;;4.93;4.53;;;;;;;;;;5030012;28;20195;-58
2023/08/29 09:11:03;;;;;;;5.05;4.65;;;;;;;;;;5029856;28;20203;-59
2023/08/29 09:13:29;;;;;;;5.65;5.20;;;;;;;;;;5029772;28;20314;-58
2023/08/29 09:15:58;;;;;;;5.43;4.95;;;;;;;;;;5041031;28;20204;-58
2023/08/29 09:18:25;;;;;;;5.10;4.60;;;;;;;;;;5029985;28;20249;-59
2023/08/29 09:20:53;;;;;;;8.50;4.90;;;;;;;;;;5029616;28;20294;-59
2023/08/29 09:23:22;;;;;;;5.57;5.13;;;;;;;;;;5030082;28;20200;-58
2023/08/29 09:25:55;;;;;;;6.57;5.05;;;;;;;;;;5029354;28;20228;-58
2023/08/29 09:28:26;;;;;;;11.40;4.13;;;;;;;;;;5030389;28;20211;-59
2023/08/29 09:30:52;;;;;;;6.53;4.78;;;;;;;;;;5033411;28;20307;-57
2023/08/29 09:33:19;;;;;;;6.38;4.63;;;;;;;;;;5033747;28;20289;-57
2023/08/29 09:35:46;;;;;;;5.63;5.00;;;;;;;;;;5033542;28;20295;-57
2023/08/29 09:38:13;;;;;;;6.03;4.32;;;;;;;;;;5033978;28;20203;-57
2023/08/29 09:40:45;;;;;;;5.72;4.60;;;;;;;;;;5033022;28;20200;-57
2023/08/29 09:43:14;;;;;;;9.00;4.43;;;;;;;;;;5034195;28;20208;-56
2023/08/29 09:45:42;;;;;;;4.10;3.80;;;;;;;;;;5033411;28;20257;-57
2023/08/29 09:48:09;;;;;;;4.63;4.22;;;;;;;;;;5033018;28;20724;-57
2023/08/29 09:50:36;;;;;;;6.55;4.28;;;;;;;;;;5033445;28;20641;-57
2023/08/29 09:53:03;;;;;;;4.80;4.35;;;;;;;;;;5033403;28;20227;-57
2023/08/29 09:55:32;;;;;;;4.80;4.40;;;;;;;;;;5033633;28;20303;-57
2023/08/29 09:57:59;;;;;;;8.23;5.03;;;;;;;;;;5032941;28;20306;-59
2023/08/29 10:00:26;;;;;;;4.90;4.50;;;;;;;;;;5033449;28;20204;-59
2023/08/29 10:02:56;;;;;;;4.78;4.35;;;;;;;;;;5033132;28;20258;-59
2023/08/29 10:05:25;;;;;;;5.45;4.68;;;;;;;;;;5033612;28;20736;-58
2023/08/29 10:07:53;;;;;;;6.78;4.30;;;;;;;;;;5033136;28;20207;-59
2023/08/29 10:10:20;;;;;;;9.02;4.50;;;;;;;;;;5033090;28;20677;-58
2023/08/29 10:12:47;;;;;;;6.63;4.47;;;;;;;;;;5032998;28;20651;-57
2023/08/29 10:15:14;;;;;;;4.85;4.03;;;;;;;;;;5033128;28;20219;-58
2023/08/29 10:17:42;;;;;;;5.63;4.38;;;;;;;;;;5032569;28;20681;-59
2023/08/29 10:20:12;;;;;;;5.05;4.65;;;;;;;;;;5032694;28;20211;-58
2023/08/29 10:22:39;;;;;;;7.15;4.43;;;;;;;;;;5031020;28;20239;-58
2023/08/29 10:25:06;;;;;;;7.30;4.18;;;;;;;;;;5031311;28;20230;-57
2023/08/29 10:27:33;;;;;;;4.95;4.55;;;;;;;;;;5030881;28;20199;-58
2023/08/29 10:29:59;;;;;;;5.85;5.10;;;;;;;;;;5030986;28;20269;-58
2023/08/29 10:32:26;;;;;;;8.98;4.65;;;;;;;;;;5030543;28;20261;-58
2023/08/29 10:34:53;;;;;;;9.80;4.78;;;;;;;;;;5031796;28;20203;-58
2023/08/29 10:37:21;;;;;;;5.03;4.50;;;;;;;;;;5032293;28;20235;-59
2023/08/29 10:39:50;;;;;;;5.18;4.70;;;;;;;;;;5032830;28;20215;-57
2023/08/29 10:42:17;;;;;;;6.07;4.47;;;;;;;;;;5031848;28;20242;-57
2023/08/29 10:44:44;;;;;;;10.20;4.65;;;;;;;;;;5032404;28;20231;-58
2023/08/29 10:47:15;;;;;;;5.68;4.57;;;;;;;;;;5032274;28;20233;-58
2023/08/29 10:49:42;;;;;;;8.02;5.38;;;;;;;;;;5032450;28;20217;-58
2023/08/29 10:52:09;;;;;;;11.23;4.65;;;;;;;;;;5032124;28;20311;-59
2023/08/29 10:54:37;;;;;;;5.88;4.10;;;;;;;;;;5032265;28;20246;-58
2023/08/29 10:57:25;;;;;;;5.15;4.18;;;;;;;;;;5031951;28;20204;-58
2023/08/29 10:59:52;;;;;;;7.47;5.13;;;;;;;;;;5032202;28;20204;-59
2023/08/29 11:02:22;;;;;;;8.55;5.30;;;;;;;;;;5032247;28;20291;-56
2023/08/29 11:04:50;;;;;;;5.18;4.68;;;;;;;;;;5031664;28;20199;-57
2023/08/29 11:07:22;;;;;;;5.57;5.07;;;;;;;;;;5032139;28;20235;-57
2023/08/29 11:10:10;;;;;;;7.45;5.82;;;;;;;;;;5032147;28;20195;-58
2023/08/29 11:12:36;;;;;;;5.45;4.40;;;;;;;;;;5031556;28;20697;-58
2023/08/29 11:15:03;;;;;;;6.85;4.65;;;;;;;;;;5032212;28;20223;-58
2023/08/29 11:17:31;;;;;;;8.18;5.00;;;;;;;;;;5031475;28;20673;-58
2023/08/29 11:19:59;;;;;;;5.70;4.57;;;;;;;;;;5032119;28;20261;-58
2023/08/29 11:22:28;;;;;;;7.07;4.53;;;;;;;;;;5031637;28;20211;-58
2023/08/29 11:24:57;;;;;;;5.22;4.82;;;;;;;;;;5031731;28;20749;-58
2023/08/29 11:27:24;;;;;;;5.78;5.13;;;;;;;;;;5031323;28;20594;-57
2023/08/29 11:29:52;;;;;;;4.88;4.50;;;;;;;;;;5031843;28;20204;-59
2023/08/29 11:32:19;;;;;;;5.95;4.70;;;;;;;;;;5031322;28;20208;-57
2023/08/29 11:34:45;;;;;;;5.43;4.78;;;;;;;;;;5031673;28;20739;-57
2023/08/29 11:37:12;;;;;;;5.13;4.22;;;;;;;;;;5031637;28;20203;-57
2023/08/29 11:39:38;;;;;;;4.85;4.43;;;;;;;;;;5031366;28;20590;-58
2023/08/29 11:42:07;;;;;;;5.47;5.03;;;;;;;;;;5030905;28;20290;-58
2023/08/29 11:44:34;;;;;;;7.32;5.03;;;;;;;;;;5031535;28;20195;-57
2023/08/29 11:47:00;;;;;;;6.82;4.85;;;;;;;;;;5031088;28;20735;-57
2023/08/29 11:49:28;;;;;;;6.15;5.07;;;;;;;;;;5031345;28;20295;-58
2023/08/29 11:51:54;;;;;;;5.43;5.03;;;;;;;;;;5030410;28;20242;-58
2023/08/29 11:54:41;;;;;;;13.20;4.82;;;;;;;;;;5031237;28;20378;-59
2023/08/29 11:57:10;;;;;;;18.05;5.13;;;;;;;;;;5031265;28;20226;-57
2023/08/29 11:59:39;;;;;;;10.70;4.95;;;;;;;;;;5030575;28;20208;-56
2023/08/29 12:02:05;;;;;;;4.97;4.57;;;;;;;;;;5031593;28;20261;-58
2023/08/29 12:04:32;;;;;;;5.28;4.78;;;;;;;;;;5030713;28;20200;-58
2023/08/29 12:07:05;;;;;;;5.47;5.03;;;;;;;;;;5027667;28;20747;-57
2023/08/29 12:09:32;;;;;;;5.50;4.60;;;;;;;;;;5030451;28;20589;-57
2023/08/29 12:11:58;;;;;;;4.80;4.40;;;;;;;;;;5030989;28;20254;-57
2023/08/29 12:14:27;;;;;;;6.32;4.68;;;;;;;;;;5030354;28;20255;-57
2023/08/29 12:16:53;;;;;;;8.93;5.05;;;;;;;;;;5030927;28;20215;-57
2023/08/29 12:19:20;;;;;;;5.40;4.95;;;;;;;;;;5028052;28;20200;-57
2023/08/29 12:21:53;;;;;;;5.35;4.95;;;;;;;;;;5031043;28;20204;-57
2023/08/29 12:24:20;;;;;;;6.00;4.82;;;;;;;;;;5030322;28;20257;-57
2023/08/29 12:26:46;;;;;;;6.35;5.13;;;;;;;;;;5030887;28;20265;-58
2023/08/29 12:29:12;;;;;;;5.47;4.65;;;;;;;;;;5030090;28;20294;-57
2023/08/29 12:31:40;;;;;;;14.07;5.80;;;;;;;;;;5030781;28;20204;-58
2023/08/29 12:34:07;;;;;;;6.40;4.75;;;;;;;;;;5029938;28;20278;-58
2023/08/29 12:36:33;;;;;;;7.63;4.78;;;;;;;;;;5033339;28;20271;-57
2023/08/29 12:39:00;;;;;;;5.82;4.43;;;;;;;;;;5029842;28;20207;-58
2023/08/29 12:41:26;;;;;;;6.90;4.75;;;;;;;;;;5030828;28;20281;-59
2023/08/29 12:43:53;;;;;;;4.55;4.30;;;;;;;;;;5029619;28;20770;-57
2023/08/29 12:46:19;;;;;;;5.47;4.80;;;;;;;;;;5030879;28;20204;-58
2023/08/29 12:48:47;;;;;;;5.22;4.70;;;;;;;;;;5030158;28;20235;-58
2023/08/29 12:51:14;;;;;;;4.93;4.50;;;;;;;;;;5030707;28;20204;-59
2023/08/29 12:53:43;;;;;;;5.78;4.97;;;;;;;;;;5029619;28;20620;-58
2023/08/29 12:56:10;;;;;;;6.13;5.20;;;;;;;;;;5030945;28;20207;-58
2023/08/29 12:58:36;;;;;;;6.93;5.15;;;;;;;;;;5030393;28;20207;-59
2023/08/29 13:01:03;;;;;;;7.55;5.00;;;;;;;;;;5030583;28;20257;-59
2023/08/29 13:03:29;;;;;;;5.38;4.97;;;;;;;;;;5029561;28;20269;-57
2023/08/29 13:05:57;;;;;;;7.53;4.90;;;;;;;;;;5030220;28;20203;-59
2023/08/29 13:08:23;;;;;;;5.25;4.85;;;;;;;;;;5030237;28;20195;-58
2023/08/29 13:10:50;;;;;;;5.10;4.75;;;;;;;;;;5030457;28;20204;-58
2023/08/29 13:13:17;;;;;;;5.78;5.00;;;;;;;;;;5030392;28;20254;-58
2023/08/29 13:15:43;;;;;;;9.10;5.97;;;;;;;;;;5030071;28;20294;-67
2023/08/29 13:18:10;;;;;;;6.85;6.22;;;;;;;;;;5030056;28;20204;-66
2023/08/29 13:20:37;;;;;;;7.43;6.05;;;;;;;;;;5030105;28;20243;-67
2023/08/29 13:23:05;;;;;;;5.90;4.90;;;;;;;;;;5029916;28;20595;-67
2023/08/29 13:25:31;;;;;;;10.07;6.55;;;;;;;;;;5029703;28;20204;-67
2023/08/29 13:27:58;;;;;;;6.53;5.93;;;;;;;;;;5029833;28;20269;-67
2023/08/29 13:30:24;;;;;;;6.15;5.65;;;;;;;;;;5029615;28;20245;-66
2023/08/29 13:32:51;;;;;;;6.15;5.55;;;;;;;;;;5030088;28;20700;-67
2023/08/29 13:35:17;;;;;;;8.30;5.70;;;;;;;;;;5029819;28;20642;-66
2023/08/29 13:37:45;;;;;;;13.10;6.07;;;;;;;;;;5029795;28;20555;-65
2023/08/29 13:40:13;;;;;;;9.43;6.15;;;;;;;;;;5029375;28;20261;-65
2023/08/29 13:42:39;;;;;;;5.50;5.20;;;;;;;;;;5029601;28;20724;-66
2023/08/29 13:45:06;;;;;;;6.05;5.55;;;;;;;;;;5030016;28;20266;-66
2023/08/29 13:47:33;;;;;;;7.40;6.70;;;;;;;;;;5029702;28;20236;-66
2023/08/29 13:49:59;;;;;;;5.95;5.50;;;;;;;;;;5029710;28;20210;-66
2023/08/29 13:52:26;;;;;;;8.07;6.43;;;;;;;;;;5029348;28;20219;-66
2023/08/29 13:54:52;;;;;;;5.72;5.25;;;;;;;;;;5029320;28;20220;-67
2023/08/29 13:57:20;;;;;;;6.07;5.47;;;;;;;;;;5029823;28;20212;-66
2023/08/29 13:59:46;;;;;;;6.25;5.72;;;;;;;;;;5029736;28;20200;-66
2023/08/29 14:02:13;;;;;;;5.78;5.28;;;;;;;;;;5029824;28;20208;-66
2023/08/29 14:04:39;;;;;;;7.90;5.32;;;;;;;;;;5029485;28;20280;-66
2023/08/29 14:07:06;;;;;;;5.90;5.18;;;;;;;;;;5029889;28;20208;-66
2023/08/29 14:09:32;;;;;;;7.30;5.13;;;;;;;;;;5029640;28;20277;-66
2023/08/29 14:11:59;;;;;;;5.47;5.07;;;;;;;;;;5029542;28;20709;-67
2023/08/29 14:14:27;;;;;;;6.88;6.25;;;;;;;;;;5029773;28;20255;-66
2023/08/29 14:16:53;;;;;;;7.80;5.72;;;;;;;;;;5033524;28;20238;-66
2023/08/29 14:19:20;;;;;;;7.95;4.70;;;;;;;;;;5031244;28;20283;-66
2023/08/29 14:21:46;;;;;;;17.15;6.38;;;;;;;;;;5029433;28;20239;-66
2023/08/29 14:24:13;;;;;;;9.25;5.32;;;;;;;;;;5032916;28;20212;-66
2023/08/29 14:26:39;;;;;;;8.32;6.30;;;;;;;;;;5033065;28;20208;-65
2023/08/29 14:29:07;;;;;;;7.80;5.95;;;;;;;;;;5034067;28;20703;-66
2023/08/29 14:31:34;;;;;;;6.88;6.38;;;;;;;;;;5039820;28;20243;-67
2023/08/29 14:34:01;;;;;;;6.68;6.00;;;;;;;;;;5042170;28;20209;-65
2023/08/29 14:36:30;;;;;;;6.47;5.97;;;;;;;;;;5031506;28;20262;-66
2023/08/29 14:38:56;;;;;;;6.60;5.97;;;;;;;;;;5030897;28;20204;-68
2023/08/29 14:41:23;;;;;;;6.70;5.95;;;;;;;;;;5031512;28;20208;-67